Time;durP1;ratioP1;P1;durP2;ratioP2;P2;SDS_P1;SDS_P2;PMS_P1;PMS_P2;Temp;Humidity;BMP_temperature;BMP_pressure;BME280_temperature;BME280_humidity;BME280_pressure;Samples;Min_cycle;Max_cycle;Signal;HPM_P1;HPM_P2
2021/12/07 00:01:38;;;;;;;13.23;1.95;;;;;;;5.57;100.00;100346.53;5070357;28;20048;-34
2021/12/07 00:04:07;;;;;;;17.98;2.13;;;;;;;5.58;100.00;100353.75;5070820;28;20509;-40
2021/12/07 00:06:35;;;;;;;10.60;1.73;;;;;;;5.63;100.00;100347.34;5071073;28;20045;-32
2021/12/07 00:09:06;;;;;;;11.75;2.13;;;;;;;5.65;100.00;100362.56;5070356;28;20492;-36
2021/12/07 00:11:34;;;;;;;18.63;3.47;;;;;;;5.68;100.00;100361.19;5067596;28;20049;-36
2021/12/07 00:14:10;;;;;;;10.48;1.80;;;;;;;5.70;100.00;100387.47;5070735;28;20041;-34
2021/12/07 00:16:42;;;;;;;15.68;1.88;;;;;;;5.72;100.00;100371.44;5068718;28;20054;-38
2021/12/07 00:19:10;;;;;;;11.82;2.03;;;;;;;5.74;100.00;100366.44;5070986;28;20045;-40
2021/12/07 00:21:38;;;;;;;14.40;2.35;;;;;;;5.79;100.00;100379.47;5070694;28;20169;-37
2021/12/07 00:24:07;;;;;;;15.30;2.30;;;;;;;5.83;100.00;100378.59;5070163;28;20055;-35
2021/12/07 00:26:37;;;;;;;16.48;2.42;;;;;;;5.89;100.00;100376.69;5070429;28;20044;-30
2021/12/07 00:29:06;;;;;;;13.52;2.05;;;;;;;5.90;100.00;100383.06;5070824;28;20076;-38
2021/12/07 00:31:39;;;;;;;17.73;2.35;;;;;;;5.90;100.00;100383.06;5068820;28;20084;-36
2021/12/07 00:34:16;;;;;;;14.82;2.60;;;;;;;5.91;100.00;100384.72;5054059;28;20056;-38
2021/12/07 00:36:48;;;;;;;13.25;1.80;;;;;;;5.93;100.00;100388.88;5066686;28;20044;-36
2021/12/07 00:39:19;;;;;;;14.90;2.22;;;;;;;5.93;100.00;100388.03;5054897;28;20445;-37
2021/12/07 00:41:48;;;;;;;14.43;2.08;;;;;;;5.91;100.00;100395.78;5070347;28;20505;-29
2021/12/07 00:44:16;;;;;;;12.35;2.00;;;;;;;5.91;100.00;100402.16;5068697;28;20056;-31
2021/12/07 00:46:44;;;;;;;13.60;2.05;;;;;;;5.90;100.00;100410.75;5073487;28;20045;-35
2021/12/07 00:49:16;;;;;;;12.13;2.22;;;;;;;5.90;100.00;100410.75;5074419;28;20083;-35
2021/12/07 00:51:44;;;;;;;13.55;1.83;;;;;;;5.92;100.00;100414.91;5069791;28;20048;-31
2021/12/07 00:54:13;;;;;;;13.45;2.03;;;;;;;5.93;100.00;100413.78;5074563;28;20063;-36
2021/12/07 00:56:41;;;;;;;13.30;2.15;;;;;;;5.92;100.00;100414.91;5072555;28;20047;-38
2021/12/07 00:59:09;;;;;;;14.07;2.33;;;;;;;5.92;100.00;100425.16;5073792;28;20131;-40
2021/12/07 01:01:37;;;;;;;13.75;2.17;;;;;;;5.93;100.00;100430.41;5072572;28;20126;-38
2021/12/07 01:04:06;;;;;;;13.27;2.50;;;;;;;5.95;100.00;100430.13;5073002;28;20450;-32
2021/12/07 01:06:48;;;;;;;15.18;1.92;;;;;;;5.97;100.00;100444.53;5073315;28;20048;-35
2021/12/07 01:09:24;;;;;;;18.38;2.67;;;;;;;5.92;100.00;100463.91;5074351;28;20044;-36
2021/12/07 01:25:52;;;;;;;11.73;1.75;;;;;;;5.59;100.00;100479.94;5073963;28;20044;-34
2021/12/07 01:28:25;;;;;;;15.40;2.33;;;;;;;5.57;100.00;100473.03;5073179;28;20041;-30
2021/12/07 01:30:58;;;;;;;12.57;1.67;;;;;;;5.52;100.00;100469.13;5073666;28;20492;-33
2021/12/07 01:36:36;;;;;;;10.50;1.45;;;;;;;5.47;100.00;100490.44;5050079;28;20056;-39
2021/12/07 01:45:01;;;;;;;12.52;2.22;;;;;;;5.31;100.00;100510.88;5072522;28;20051;-37
2021/12/07 01:47:51;;;;;;;10.20;1.92;;;;;;;5.30;100.00;100510.06;5072533;28;20079;-37
2021/12/07 01:50:47;;;;;;;11.48;1.63;;;;;;;5.35;100.00;100515.59;5062138;28;20076;-28
2021/12/07 01:57:49;;;;;;;13.13;2.00;;;;;;;5.44;100.00;100524.19;5071787;28;20118;-35
2021/12/07 02:01:49;;;;;;;14.48;1.83;;;;;;;5.60;100.00;100523.09;5071221;28;20044;-37
2021/12/07 02:04:17;;;;;;;11.95;1.70;;;;;;;5.62;100.00;100520.88;5073035;28;20045;-36
2021/12/07 02:06:45;;;;;;;9.88;1.70;;;;;;;5.64;100.00;100517.84;5071448;28;20508;-37
2021/12/07 02:09:13;;;;;;;11.90;1.85;;;;;;;5.64;100.00;100526.16;5072410;28;20048;-36
2021/12/07 02:11:48;;;;;;;7.55;1.30;;;;;;;5.64;100.00;100535.28;5071654;28;20045;-33
2021/12/07 02:14:18;;;;;;;12.30;1.98;;;;;;;5.65;100.00;100531.41;5072738;28;20076;-38
2021/12/07 02:16:49;;;;;;;12.25;2.00;;;;;;;5.65;100.00;100528.66;5071311;28;20125;-30
2021/12/07 02:19:18;;;;;;;15.07;2.42;;;;;;;5.66;100.00;100530.31;5072311;28;20076;-37
2021/12/07 02:21:48;;;;;;;11.48;1.98;;;;;;;5.71;100.00;100526.72;5072968;28;20071;-34
2021/12/07 02:24:21;;;;;;;14.80;1.90;;;;;;;5.70;100.00;100545.28;5070679;28;20246;-34
2021/12/07 02:26:50;;;;;;;11.40;2.15;;;;;;;5.69;100.00;100549.16;5072884;28;20547;-39
2021/12/07 02:29:20;;;;;;;14.93;1.88;;;;;;;5.70;100.00;100556.34;5070399;28;20063;-33
2021/12/07 02:31:49;;;;;;;10.40;1.70;;;;;;;5.74;100.00;100563.00;5072628;28;20079;-32
2021/12/07 02:34:18;;;;;;;12.05;1.80;;;;;;;5.79;100.00;100557.47;5071007;28;20055;-37
2021/12/07 02:36:50;;;;;;;14.48;2.30;;;;;;;5.81;100.00;100562.72;5059577;28;20044;-34
2021/12/07 02:39:29;;;;;;;13.13;2.30;;;;;;;5.82;100.00;100564.38;5070972;28;20541;-35
2021/12/07 02:41:58;;;;;;;13.40;1.80;;;;;;;5.80;100.00;100570.19;5065160;28;20110;-38
2021/12/07 02:44:27;;;;;;;9.48;2.00;;;;;;;5.82;100.00;100569.91;5070229;28;20573;-41
2021/12/07 02:46:55;;;;;;;9.68;1.48;;;;;;;5.81;100.00;100569.09;5070772;28;20101;-38
2021/12/07 02:49:23;;;;;;;8.48;1.58;;;;;;;5.86;100.00;100580.16;5070831;28;20517;-39
2021/12/07 02:51:53;;;;;;;14.75;2.40;;;;;;;5.94;100.00;100584.38;5067862;28;20079;-36
2021/12/07 02:54:21;;;;;;;14.70;2.40;;;;;;;5.97;100.00;100583.84;5070678;28;20040;-35
2021/12/07 02:56:51;;;;;;;15.30;1.83;;;;;;;6.00;100.00;100587.97;5070185;28;20378;-34
2021/12/07 02:59:21;;;;;;;11.23;2.05;;;;;;;6.00;100.00;100586.03;5070169;28;20413;-31
2021/12/07 03:01:57;;;;;;;19.10;2.03;;;;;;;6.02;100.00;100581.03;5070575;28;20060;-40
2021/12/07 03:04:34;;;;;;;14.52;1.98;;;;;;;6.03;100.00;100598.50;5070098;28;20498;-33
2021/12/07 03:07:11;;;;;;;8.27;1.80;;;;;;;6.06;100.00;100611.78;5070309;28;20139;-35
2021/12/07 03:26:23;;;;;;;6.63;0.80;;;;;;;5.90;100.00;100624.78;5069593;28;20078;-37
2021/12/07 03:28:54;;;;;;;7.90;1.10;;;;;;;5.90;100.00;100648.88;5071639;28;20481;-32
2021/12/07 03:31:26;;;;;;;;;;;;;;;5.83;100.00;100649.09;5070268;28;20139;-36
2021/12/07 03:33:56;;;;;;;5.15;0.80;;;;;;;5.80;100.00;100639.41;5069681;28;19921;-38
2021/12/07 03:36:27;;;;;;;5.00;1.15;;;;;;;5.80;100.00;100639.41;5071032;28;20047;-35
2021/12/07 03:38:59;;;;;;;10.83;1.30;;;;;;;5.78;100.00;100651.88;5070382;28;20139;-40
2021/12/07 03:41:27;;;;;;;5.47;1.30;;;;;;;5.76;100.00;100660.47;5069290;28;20064;-32
2021/12/07 03:43:55;;;;;;;7.60;1.45;;;;;;;5.77;100.00;100653.00;5070035;28;20044;-32
2021/12/07 03:46:23;;;;;;;10.10;1.20;;;;;;;5.76;100.00;100654.91;5069526;28;20044;-33
2021/12/07 03:48:53;;;;;;;9.25;1.23;;;;;;;5.74;100.00;100664.59;5069202;28;20044;-37
2021/12/07 03:51:21;;;;;;;9.68;1.95;;;;;;;5.73;100.00;100654.63;5071145;28;20103;-39
2021/12/07 03:53:48;;;;;;;9.80;1.50;;;;;;;5.73;100.00;100658.22;5069417;28;20049;-31
2021/12/07 03:56:18;;;;;;;13.15;1.70;;;;;;;5.76;100.00;100652.16;5069799;28;20050;-34
2021/12/07 03:58:46;;;;;;;9.85;1.80;;;;;;;5.79;100.00;100654.38;5070853;28;20057;-38
2021/12/07 04:01:14;;;;;;;10.93;1.75;;;;;;;5.80;100.00;100647.72;5068829;28;20501;-34
2021/12/07 04:03:45;;;;;;;17.15;2.45;;;;;;;5.82;100.00;100659.34;5069830;28;20040;-37
2021/12/07 04:06:15;;;;;;;12.52;1.33;;;;;;;5.85;100.00;100653.28;5069941;28;20052;-36
2021/12/07 04:08:43;;;;;;;12.45;1.60;;;;;;;5.87;100.00;100664.91;5070426;28;20127;-38
2021/12/07 04:11:15;;;;;;;9.35;1.30;;;;;;;5.88;100.00;100651.91;5069672;28;20059;-36
2021/12/07 04:13:45;;;;;;;9.50;1.60;;;;;;;5.86;100.00;100654.94;5070671;28;20028;-42
2021/12/07 04:16:18;;;;;;;14.70;1.92;;;;;;;5.86;100.00;100651.34;5069043;28;20048;-38
2021/12/07 04:18:49;;;;;;;12.88;2.05;;;;;;;5.85;100.00;100658.81;5069628;28;20044;-35
2021/12/07 04:21:17;;;;;;;9.50;1.67;;;;;;;5.86;100.00;100659.63;5071801;28;20074;-34
2021/12/07 04:23:45;;;;;;;10.80;1.80;;;;;;;5.86;100.00;100654.94;5072952;28;20127;-33
2021/12/07 04:26:14;;;;;;;12.60;2.17;;;;;;;5.86;100.00;100657.72;5074792;28;20062;-29
2021/12/07 04:28:44;;;;;;;12.15;1.73;;;;;;;5.84;100.00;100668.22;5074688;28;20047;-37
2021/12/07 04:31:13;;;;;;;10.70;1.58;;;;;;;5.84;100.00;100682.06;5074789;28;20059;-35
2021/12/07 04:33:41;;;;;;;7.28;1.42;;;;;;;5.83;100.00;100682.34;5074512;28;20052;-37
2021/12/07 04:36:10;;;;;;;10.27;1.40;;;;;;;5.84;100.00;100679.28;5074362;28;20044;-32
2021/12/07 04:38:39;;;;;;;15.05;1.70;;;;;;;5.82;100.00;100681.50;5074171;28;20040;-39
2021/12/07 04:41:07;;;;;;;10.85;2.03;;;;;;;5.81;100.00;100679.84;5074890;28;20049;-37
2021/12/07 04:43:38;;;;;;;12.65;1.83;;;;;;;5.82;100.00;100675.97;5073826;28;20502;-39
2021/12/07 04:46:13;;;;;;;11.88;2.10;;;;;;;5.83;100.00;100679.56;5063602;28;20050;-34
2021/12/07 04:49:18;;;;;;;10.63;2.00;;;;;;;5.81;100.00;100685.38;5074364;28;20052;-32
2021/12/07 04:59:57;;;;;;;10.82;1.75;;;;;;;5.73;100.00;100676.78;5073703;28;20051;-34
2021/12/07 05:02:26;;;;;;;9.13;1.73;;;;;;;5.74;100.00;100693.13;5074131;28;20051;-37
2021/12/07 05:04:54;;;;;;;8.18;1.63;;;;;;;5.77;100.00;100706.44;5073112;28;20037;-35
2021/12/07 05:07:28;;;;;;;13.35;1.65;;;;;;;5.78;100.00;100718.34;5074218;28;20088;-29
2021/12/07 05:10:22;;;;;;;7.85;1.23;;;;;;;5.80;100.00;100686.47;5073700;28;20477;-37
2021/12/07 05:13:20;;;;;;;6.22;1.10;;;;;;;5.78;100.00;100716.41;5074037;28;20067;-37
2021/12/07 05:18:55;;;;;;;5.60;1.05;;;;;;;5.74;100.00;100723.56;5073014;28;20048;-36
2021/12/07 05:24:14;;;;;;;9.57;1.40;;;;;;;5.76;100.00;100721.38;5073893;28;20076;-34
2021/12/07 05:37:51;;;;;;;9.02;1.38;;;;;;;5.82;100.00;100733.28;5073612;28;20053;-36
2021/12/07 05:40:21;;;;;;;8.70;1.70;;;;;;;5.84;100.00;100750.44;5073092;28;20072;-36
2021/12/07 05:42:49;;;;;;;10.35;1.70;;;;;;;5.86;100.00;100738.00;5073597;28;20040;-31
2021/12/07 05:45:21;;;;;;;11.55;1.42;;;;;;;5.87;100.00;100747.16;5072826;28;20044;-33
2021/12/07 05:47:50;;;;;;;8.23;1.40;;;;;;;5.83;100.00;100754.31;5073133;28;20050;-37
2021/12/07 05:50:21;;;;;;;10.57;1.20;;;;;;;5.79;100.00;100751.28;5072832;28;20045;-33
2021/12/07 05:52:49;;;;;;;7.45;1.30;;;;;;;5.78;100.00;100749.63;5073056;28;20053;-37
2021/12/07 05:55:17;;;;;;;7.75;1.30;;;;;;;5.77;100.00;100745.19;5072668;28;20041;-33
2021/12/07 05:57:46;;;;;;;8.48;1.35;;;;;;;5.75;100.00;100752.09;5072942;28;20058;-34
2021/12/07 06:00:23;;;;;;;9.20;1.80;;;;;;;5.76;100.00;100765.66;5072642;28;20055;-33
2021/12/07 06:02:52;;;;;;;7.35;1.40;;;;;;;5.77;100.00;100756.25;5073244;28;20053;-30
2021/12/07 06:05:22;;;;;;;11.25;1.52;;;;;;;5.80;100.00;100757.63;5072891;28;20056;-31
2021/12/07 06:07:50;;;;;;;10.32;1.58;;;;;;;5.78;100.00;100763.47;5072786;28;20052;-38
2021/12/07 06:10:18;;;;;;;9.68;1.40;;;;;;;5.80;100.00;100760.41;5072861;28;20479;-32
2021/12/07 06:12:45;;;;;;;7.13;1.02;;;;;;;5.81;100.00;100756.53;5072701;28;20036;-41
2021/12/07 06:15:17;;;;;;;8.60;1.50;;;;;;;5.83;100.00;100760.69;5072261;28;20420;-34
2021/12/07 06:17:45;;;;;;;8.67;1.57;;;;;;;5.86;100.00;100757.38;5072982;28;20124;-35
2021/12/07 06:20:14;;;;;;;15.82;1.80;;;;;;;5.87;100.00;100761.81;5072660;28;20655;-34
2021/12/07 06:23:03;;;;;;;6.53;1.40;;;;;;;5.92;100.00;100763.00;5070154;28;20063;-40
2021/12/07 06:25:31;;;;;;;12.80;1.65;;;;;;;5.97;100.00;100763.03;5071835;28;20049;-28
2021/12/07 06:27:59;;;;;;;8.05;1.40;;;;;;;6.01;100.00;100764.13;5071939;28;20383;-29
2021/12/07 06:30:26;;;;;;;8.57;1.40;;;;;;;6.03;100.00;100764.69;5072350;28;20387;-34
2021/12/07 06:32:54;;;;;;;9.75;1.40;;;;;;;6.06;100.00;100775.22;5072074;28;20040;-30
2021/12/07 06:35:22;;;;;;;9.15;2.17;;;;;;;6.05;100.00;100777.16;5072411;28;20078;-40
2021/12/07 06:37:50;;;;;;;8.35;1.35;;;;;;;6.07;100.00;100769.41;5072107;28;20060;-34
2021/12/07 06:40:24;;;;;;;10.13;1.73;;;;;;;6.08;100.00;100773.84;5072561;28;20390;-33
2021/12/07 06:42:52;;;;;;;8.60;1.60;;;;;;;6.08;100.00;100775.78;5071317;28;20493;-36
2021/12/07 06:45:20;;;;;;;11.13;1.40;;;;;;;6.08;100.00;100773.84;5072487;28;20052;-34
2021/12/07 06:47:47;;;;;;;6.82;1.17;;;;;;;6.08;100.00;100776.63;5071934;28;20475;-32
2021/12/07 06:50:15;;;;;;;7.18;1.33;;;;;;;6.09;100.00;100774.69;5060561;28;20064;-34
2021/12/07 06:52:43;;;;;;;8.32;1.50;;;;;;;6.08;100.00;100773.03;5071764;28;20494;-32
2021/12/07 06:55:11;;;;;;;10.55;1.60;;;;;;;6.05;100.00;100771.63;5072239;28;20049;-33
2021/12/07 06:57:40;;;;;;;8.27;1.52;;;;;;;6.03;100.00;100782.13;5071301;28;20132;-37
2021/12/07 07:00:11;;;;;;;9.23;1.25;;;;;;;5.99;100.00;100775.50;5071853;28;20045;-30
2021/12/07 07:02:40;;;;;;;9.68;1.40;;;;;;;5.96;100.00;100776.03;5071786;28;20406;-31
2021/12/07 07:05:08;;;;;;;9.35;1.23;;;;;;;5.95;100.00;100781.84;5071321;28;20083;-34
2021/12/07 07:07:36;;;;;;;8.93;1.42;;;;;;;5.92;100.00;100785.16;5071959;28;20067;-38
2021/12/07 07:10:05;;;;;;;10.48;1.40;;;;;;;5.89;100.00;100789.28;5071591;28;20106;-27
2021/12/07 07:12:34;;;;;;;5.95;1.10;;;;;;;5.84;100.00;100789.22;5070873;28;20524;-33
2021/12/07 07:15:04;;;;;;;8.32;1.30;;;;;;;5.84;100.00;100801.13;5071461;28;20163;-32
2021/12/07 07:17:32;;;;;;;8.50;1.52;;;;;;;5.82;100.00;100803.34;5071714;28;20055;-29
2021/12/07 07:20:02;;;;;;;8.60;1.20;;;;;;;5.79;100.00;100795.59;5070933;28;20470;-29
2021/12/07 07:22:29;;;;;;;8.20;1.48;;;;;;;5.77;100.00;100794.19;5071142;28;20044;-36
2021/12/07 07:24:57;;;;;;;9.32;1.52;;;;;;;5.72;100.00;100789.44;5070238;28;20481;-32
2021/12/07 07:27:25;;;;;;;8.05;1.67;;;;;;;5.70;100.00;100788.88;5070726;28;20473;-33
2021/12/07 07:29:53;;;;;;;8.02;1.08;;;;;;;5.66;100.00;100787.75;5069640;28;20112;-32
2021/12/07 07:32:22;;;;;;;6.50;1.00;;;;;;;5.64;100.00;100789.13;5070233;28;20059;-33
2021/12/07 07:34:50;;;;;;;9.70;1.33;;;;;;;5.61;100.00;100782.19;5070584;28;20059;-36
2021/12/07 07:37:18;;;;;;;8.80;1.20;;;;;;;5.61;100.00;100779.41;5071671;28;20055;-37
2021/12/07 07:39:45;;;;;;;9.68;1.48;;;;;;;5.58;100.00;100774.44;5070381;28;20405;-36
2021/12/07 07:42:13;;;;;;;9.55;1.10;;;;;;;5.54;100.00;100765.84;5071167;28;20055;-32
2021/12/07 07:45:01;;;;;;;8.50;1.20;;;;;;;5.52;100.00;100761.66;5069742;28;20082;-30
2021/12/07 07:47:30;;;;;;;6.47;1.00;;;;;;;5.51;100.00;100757.22;5070818;28;20044;-30
2021/12/07 07:49:58;;;;;;;7.50;1.30;;;;;;;5.48;100.00;100764.13;5070761;28;20052;-32
2021/12/07 07:52:26;;;;;;;5.72;0.90;;;;;;;5.49;100.00;100756.66;5070993;28;20060;-34
2021/12/07 07:54:54;;;;;;;10.32;1.30;;;;;;;5.49;100.00;100762.19;5069632;28;20044;-33
2021/12/07 07:57:22;;;;;;;8.50;1.23;;;;;;;5.48;100.00;100757.75;5071167;28;20052;-30
2021/12/07 07:59:50;;;;;;;7.32;1.02;;;;;;;5.45;100.00;100759.13;5070214;28;20099;-37
2021/12/07 08:02:17;;;;;;;6.13;1.15;;;;;;;5.47;100.00;100761.63;5071241;28;20064;-39
2021/12/07 08:04:47;;;;;;;5.75;0.90;;;;;;;5.51;100.00;100757.22;5070810;28;20079;-35
2021/12/07 08:07:15;;;;;;;6.28;1.05;;;;;;;5.53;100.00;100766.94;5069439;28;20048;-36
2021/12/07 08:09:43;;;;;;;6.40;1.10;;;;;;;5.56;100.00;100762.78;5070893;28;20432;-40
2021/12/07 08:12:10;;;;;;;7.93;1.10;;;;;;;5.56;100.00;100768.34;5070924;28;20413;-27
2021/12/07 08:14:38;;;;;;;4.70;0.90;;;;;;;5.57;100.00;100766.41;5070400;28;20045;-30
2021/12/07 08:17:06;;;;;;;6.57;1.00;;;;;;;5.57;100.00;100761.69;5069341;28;20497;-30
2021/12/07 08:19:34;;;;;;;4.95;0.90;;;;;;;5.57;100.00;100761.69;5070627;28;20116;-29
2021/12/07 08:22:04;;;;;;;8.45;1.25;;;;;;;5.61;100.00;100770.28;5070343;28;20374;-35
2021/12/07 08:24:34;;;;;;;8.95;1.20;;;;;;;5.63;100.00;100776.38;5069468;28;20071;-35
2021/12/07 08:27:02;;;;;;;10.90;1.48;;;;;;;5.71;100.00;100790.56;5070735;28;20051;-32
2021/12/07 08:29:50;;;;;;;6.13;1.00;;;;;;;5.77;100.00;100792.25;5070066;28;20045;-35
2021/12/07 08:32:18;;;;;;;6.80;1.50;;;;;;;5.79;100.00;100794.75;5069469;28;20405;-32
2021/12/07 08:34:45;;;;;;;6.10;1.30;;;;;;;5.79;100.00;100783.69;5070558;28;20049;-36
2021/12/07 08:37:15;;;;;;;7.60;1.20;;;;;;;5.80;100.00;100774.25;5069818;28;20044;-35
2021/12/07 08:39:42;;;;;;;8.48;1.40;;;;;;;5.80;100.00;100769.53;5069506;28;20406;-37
2021/12/07 08:42:10;;;;;;;9.63;1.88;;;;;;;5.82;100.00;100769.28;5068938;28;20048;-37
2021/12/07 08:44:38;;;;;;;11.18;1.10;;;;;;;5.81;100.00;100768.44;5070746;28;20056;-29
2021/12/07 08:47:07;;;;;;;5.80;1.20;;;;;;;5.82;100.00;100764.56;5070055;28;20043;-36
2021/12/07 08:49:35;;;;;;;7.82;1.27;;;;;;;5.82;100.00;100763.72;5070329;28;20052;-32
2021/12/07 08:52:04;;;;;;;6.88;1.17;;;;;;;5.85;100.00;100761.25;5069994;28;20097;-35
2021/12/07 08:59:37;;;;;;;7.63;1.25;;;;;;;5.92;100.00;100763.00;5070628;28;20053;-36
2021/12/07 09:00:10;;;;;;;8.95;1.48;;;;;;;6.19;100.00;100763.66;5070462;28;20052;-38
2021/12/07 09:02:38;;;;;;;8.80;1.45;;;;;;;6.32;100.00;100757.59;5070116;28;20048;-32
2021/12/07 09:05:07;;;;;;;7.03;1.20;;;;;;;6.54;100.00;100749.88;5070112;28;20493;-33
2021/12/07 09:07:34;;;;;;;11.82;1.30;;;;;;;6.84;100.00;100750.97;5072461;28;20095;-36
2021/12/07 09:10:04;;;;;;;8.35;1.30;;;;;;;7.11;100.00;100756.25;5074091;28;20036;-37
2021/12/07 09:12:32;;;;;;;10.15;1.40;;;;;;;7.35;100.00;100748.19;5073486;28;20048;-34
2021/12/07 09:15:00;;;;;;;7.03;1.23;;;;;;;7.55;98.53;100756.47;5074147;28;20048;-36
2021/12/07 09:17:27;;;;;;;5.65;0.90;;;;;;;7.66;95.93;100752.53;5073106;28;20055;-35
2021/12/07 09:19:55;;;;;;;10.00;1.60;;;;;;;7.81;96.49;100757.19;5073865;28;20047;-33
2021/12/07 09:22:23;;;;;;;8.35;1.25;;;;;;;7.98;95.85;100759.66;5073824;28;20052;-37
2021/12/07 09:24:54;;;;;;;9.88;1.48;;;;;;;8.14;95.41;100748.16;5072152;28;20452;-31
2021/12/07 09:27:23;;;;;;;7.40;1.60;;;;;;;8.36;95.53;100758.94;5073741;28;20032;-33
2021/12/07 09:29:51;;;;;;;9.63;1.40;;;;;;;8.57;93.78;100766.03;5073712;28;20040;-37
2021/12/07 09:32:19;;;;;;;6.10;1.13;;;;;;;8.68;90.78;100764.00;5072880;28;20485;-36
2021/12/07 09:34:47;;;;;;;7.63;1.23;;;;;;;8.83;92.26;100766.66;5073686;28;20083;-38
2021/12/07 09:37:14;;;;;;;6.07;1.27;;;;;;;9.05;91.93;100768.97;5073647;28;20068;-34
2021/12/07 09:39:42;;;;;;;6.28;1.20;;;;;;;9.19;89.60;100769.97;5072680;28;20569;-35
2021/12/07 09:42:10;;;;;;;9.02;1.30;;;;;;;9.39;90.23;100770.91;5073481;28;20048;-41
2021/12/07 09:44:39;;;;;;;8.52;1.38;;;;;;;9.63;89.88;100772.59;5073408;28;20052;-37
2021/12/07 09:47:07;;;;;;;7.68;1.30;;;;;;;9.85;87.74;100772.06;5073131;28;20048;-40
2021/12/07 09:49:35;;;;;;;7.20;1.45;;;;;;;9.95;85.71;100783.13;5073469;28;20059;-32
2021/12/07 09:52:03;;;;;;;6.28;1.45;;;;;;;10.06;84.90;100785.75;5073529;28;20075;-38
2021/12/07 09:54:31;;;;;;;8.80;1.50;;;;;;;10.06;83.01;100791.34;5072527;28;20045;-36
2021/12/07 09:56:59;;;;;;;7.00;1.23;;;;;;;9.96;81.97;100786.72;5073383;28;20045;-31
2021/12/07 09:59:26;;;;;;;5.55;1.20;;;;;;;9.74;82.06;100781.69;5072178;28;20056;-31
2021/12/07 10:01:55;;;;;;;6.03;1.48;;;;;;;9.41;82.88;100775.03;5073338;28;20048;-34
2021/12/07 10:04:27;;;;;;;7.65;1.23;;;;;;;9.10;83.76;100788.44;5072813;28;20051;-32
2021/12/07 10:06:55;;;;;;;11.50;1.55;;;;;;;8.86;84.50;100793.91;5072644;28;20444;-34
2021/12/07 10:09:23;;;;;;;5.28;1.55;;;;;;;8.83;84.97;100788.06;5072859;28;20599;-32
2021/12/07 10:11:52;;;;;;;5.85;1.10;;;;;;;8.78;82.61;100788.13;5073078;28;20462;-37
2021/12/07 10:14:20;;;;;;;6.25;1.50;;;;;;;8.79;82.14;100775.88;5071899;28;20071;-37
2021/12/07 10:16:49;;;;;;;8.27;1.30;;;;;;;8.86;82.88;100791.13;5073108;28;20047;-33
2021/12/07 10:19:28;;;;;;;6.68;1.13;;;;;;;8.73;80.42;100782.59;5072054;28;20083;-30
2021/12/07 10:22:01;;;;;;;6.43;0.98;;;;;;;8.56;80.81;100800.50;5069481;28;20041;-32
2021/12/07 10:24:37;;;;;;;10.88;1.40;;;;;;;8.40;81.81;100792.53;5071428;28;20402;-30
2021/12/07 10:27:05;;;;;;;6.63;1.30;;;;;;;8.25;82.72;100780.34;5070218;28;20045;-31
2021/12/07 10:29:34;;;;;;;6.80;1.35;;;;;;;8.14;83.71;100767.63;5071816;28;20049;-34
2021/12/07 10:32:07;;;;;;;4.30;1.10;;;;;;;7.94;82.97;100768.53;5071624;28;20045;-35
2021/12/07 10:34:40;;;;;;;6.18;1.40;;;;;;;7.85;83.49;100767.47;5072023;28;20155;-36
2021/12/07 10:37:15;;;;;;;6.00;1.40;;;;;;;7.82;84.61;100770.78;5072304;28;20067;-29
2021/12/07 10:39:45;;;;;;;5.70;1.20;;;;;;;7.79;84.37;100765.00;5072516;28;20046;-32
2021/12/07 10:42:16;;;;;;;7.65;1.20;;;;;;;7.76;84.54;100760.84;5071465;28;20486;-32
2021/12/07 10:45:00;;;;;;;4.68;1.05;;;;;;;7.78;85.14;100753.06;5072484;28;20052;-32
2021/12/07 10:47:28;;;;;;;5.15;1.33;;;;;;;7.84;85.80;100751.91;5071996;28;20049;-27
2021/12/07 10:49:59;;;;;;;7.80;1.30;;;;;;;7.89;86.24;100751.88;5071560;28;20054;-36
2021/12/07 10:52:29;;;;;;;6.68;1.35;;;;;;;7.89;86.64;100753.84;5072439;28;20048;-33
2021/12/07 10:55:07;;;;;;;6.20;1.10;;;;;;;7.78;86.68;100744.72;5072289;28;20048;-34
2021/12/07 10:57:38;;;;;;;10.10;1.70;;;;;;;7.70;87.48;100731.41;5071289;28;20049;-37
2021/12/07 11:00:16;;;;;;;7.65;1.42;;;;;;;7.63;87.93;100730.03;5071951;28;20045;-31
2021/12/07 11:02:47;;;;;;;10.30;1.40;;;;;;;7.65;89.03;100728.66;5071243;28;20044;-29
2021/12/07 11:05:20;;;;;;;8.45;1.30;;;;;;;7.72;89.39;100720.84;5072059;28;20222;-31
2021/12/07 11:07:48;;;;;;;6.25;1.20;;;;;;;7.75;89.29;100719.47;5068954;28;20071;-34
2021/12/07 11:10:21;;;;;;;4.00;1.10;;;;;;;7.76;87.78;100719.19;5071164;28;20044;-34
2021/12/07 11:12:58;;;;;;;7.72;1.00;;;;;;;7.82;88.41;100715.25;5071556;28;20076;-33
2021/12/07 11:15:28;;;;;;;8.23;1.35;;;;;;;7.87;88.73;100717.16;5056064;28;20050;-33
2021/12/07 11:17:58;;;;;;;9.90;1.30;;;;;;;7.88;88.54;100711.31;5070886;28;20059;-37
2021/12/07 11:20:29;;;;;;;7.63;1.30;;;;;;;7.88;88.74;100708.56;5071997;28;20401;-34
2021/12/07 11:23:00;;;;;;;10.07;1.38;;;;;;;7.90;88.79;100706.31;5071340;28;20056;-36
2021/12/07 11:31:22;;;;;;;6.25;1.73;;;;;;;7.81;90.29;100696.91;5056455;28;20398;-31
2021/12/07 11:33:53;;;;;;;5.95;1.60;;;;;;;7.76;90.47;100688.63;5071523;28;20087;-35
2021/12/07 11:36:25;;;;;;;8.00;1.45;;;;;;;7.64;91.45;100677.00;5071155;28;20464;-38
2021/12/07 11:38:54;;;;;;;7.95;1.95;;;;;;;7.49;92.13;100675.13;5070425;28;20079;-33
2021/12/07 11:41:25;;;;;;;7.47;1.30;;;;;;;7.41;92.96;100669.31;5070039;28;20055;-36
2021/12/07 11:43:57;;;;;;;5.80;1.38;;;;;;;7.33;93.64;100669.91;5067153;28;20139;-31
2021/12/07 11:46:28;;;;;;;8.07;1.65;;;;;;;7.25;95.51;100669.34;5054440;28;20135;-35
2021/12/07 11:49:11;;;;;;;8.98;1.80;;;;;;;7.24;96.39;100650.22;5071031;28;20049;-35
2021/12/07 11:51:42;;;;;;;8.27;1.70;;;;;;;7.21;97.32;100654.38;5051111;28;20053;-31
2021/12/07 11:54:10;;;;;;;10.32;1.92;;;;;;;7.21;97.92;100642.44;5066483;28;20047;-36
2021/12/07 11:56:39;;;;;;;9.30;2.05;;;;;;;7.22;98.69;100644.94;5071100;28;20576;-32
2021/12/07 11:59:09;;;;;;;10.57;1.77;;;;;;;7.22;98.90;100633.84;5070334;28;20052;-26
2021/12/07 12:01:44;;;;;;;10.00;1.85;;;;;;;7.23;99.31;100627.19;5070984;28;20047;-31
2021/12/07 12:04:12;;;;;;;11.77;1.85;;;;;;;7.22;99.65;100621.91;5070737;28;20059;-33
2021/12/07 12:06:43;;;;;;;7.43;1.50;;;;;;;7.18;99.29;100624.44;5070294;28;20386;-36
2021/12/07 12:09:12;;;;;;;11.27;2.35;;;;;;;7.18;100.00;100610.56;5070062;28;20043;-35
2021/12/07 12:11:46;;;;;;;12.60;2.13;;;;;;;7.16;100.00;100607.25;5070875;28;20455;-35
2021/12/07 12:14:34;;;;;;;10.10;1.73;;;;;;;7.17;100.00;100600.59;5069972;28;20052;-38
2021/12/07 12:17:09;;;;;;;10.50;1.70;;;;;;;7.22;100.00;100588.59;5070901;28;20052;-31
2021/12/07 12:19:50;;;;;;;9.00;1.98;;;;;;;7.24;100.00;100592.75;5070581;28;20413;-35
2021/12/07 12:22:26;;;;;;;8.02;2.03;;;;;;;7.26;100.00;100589.72;5070294;28;20255;-31
2021/12/07 12:24:56;;;;;;;10.88;1.90;;;;;;;7.24;100.00;100586.38;5067410;28;20501;-34
2021/12/07 12:27:27;;;;;;;10.52;1.90;;;;;;;7.20;100.00;100583.34;5070328;28;20823;-36
2021/12/07 12:29:57;;;;;;;6.03;1.40;;;;;;;7.16;100.00;100579.50;5070393;28;20041;-34
2021/12/07 12:32:29;;;;;;;7.97;1.50;;;;;;;7.12;100.00;100572.00;5070990;28;20424;-35
2021/12/07 12:34:58;;;;;;;11.98;2.13;;;;;;;7.14;100.00;100567.84;5069590;28;20408;-35
2021/12/07 12:37:30;;;;;;;12.48;1.92;;;;;;;7.10;100.00;100565.91;5070932;28;20051;-36
2021/12/07 12:40:00;;;;;;;11.32;2.13;;;;;;;7.07;100.00;100572.03;5070183;28;20048;-33
2021/12/07 12:42:36;;;;;;;9.45;1.60;;;;;;;7.03;100.00;100560.66;5072970;28;20418;-29
2021/12/07 12:45:17;;;;;;;7.70;1.63;;;;;;;6.96;100.00;100551.81;5074616;28;20048;-35
2021/12/07 12:47:45;;;;;;;6.93;1.50;;;;;;;6.93;100.00;100540.47;5074634;28;20057;-32
2021/12/07 12:50:17;;;;;;;13.98;1.90;;;;;;;6.90;100.00;100544.63;5073539;28;20063;-31
2021/12/07 12:52:49;;;;;;;8.73;1.52;;;;;;;6.87;100.00;100543.25;5074672;28;20046;-37
2021/12/07 12:55:44;;;;;;;8.50;1.70;;;;;;;6.90;100.00;100541.84;5073572;28;20098;-34
2021/12/07 12:58:20;;;;;;;8.45;1.80;;;;;;;6.86;100.00;100538.81;5074543;28;20590;-33
2021/12/07 13:01:10;;;;;;;10.75;1.80;;;;;;;6.85;100.00;100536.31;5073814;28;20059;-34